Time;durP1;ratioP1;P1;durP2;ratioP2;P2;SDS_P1;SDS_P2;PMS_P1;PMS_P2;Temp;Humidity;BMP_temperature;BMP_pressure;BME280_temperature;BME280_humidity;BME280_pressure;Samples;Min_cycle;Max_cycle;Signal;HPM_P1;HPM_P2
2021/09/07 00:00:14;;;;;;;17.88;13.48;;;16.20;99.90;;;;;;4894514;29;20059;-69
2021/09/07 00:02:42;;;;;;;15.65;12.45;;;16.30;99.90;;;;;;4900225;29;20444;-69
2021/09/07 00:05:12;;;;;;;19.70;12.77;;;16.20;99.90;;;;;;4900696;29;20053;-69
2021/09/07 00:07:40;;;;;;;17.33;12.95;;;16.20;99.90;;;;;;4896874;29;20455;-68
2021/09/07 00:10:09;;;;;;;17.58;12.98;;;16.20;99.90;;;;;;4901828;29;20081;-68
2021/09/07 00:12:37;;;;;;;16.52;12.57;;;16.20;99.90;;;;;;4894736;29;20495;-68
2021/09/07 00:15:08;;;;;;;16.10;12.10;;;16.20;99.90;;;;;;4894906;29;20052;-68
2021/09/07 00:17:37;;;;;;;16.63;12.18;;;16.20;99.90;;;;;;4893332;29;20056;-68
2021/09/07 00:20:07;;;;;;;19.05;12.52;;;16.20;99.90;;;;;;4893622;29;20071;-69
2021/09/07 00:22:35;;;;;;;17.35;12.73;;;16.20;99.90;;;;;;4894365;29;20058;-68
2021/09/07 00:25:04;;;;;;;18.15;12.23;;;16.10;99.90;;;;;;4889625;29;20819;-69
2021/09/07 00:27:32;;;;;;;18.85;11.85;;;16.10;99.90;;;;;;4891319;29;20096;-69
2021/09/07 00:30:00;;;;;;;15.43;11.70;;;16.10;99.90;;;;;;4892768;29;20279;-69
2021/09/07 00:32:27;;;;;;;16.55;11.85;;;16.00;99.90;;;;;;4900756;29;20431;-69
2021/09/07 00:34:55;;;;;;;18.13;12.20;;;15.90;99.90;;;;;;4893575;29;20089;-69
2021/09/07 00:37:22;;;;;;;17.35;12.27;;;15.90;99.90;;;;;;4893922;29;20045;-69
2021/09/07 00:39:49;;;;;;;19.08;12.70;;;15.80;99.90;;;;;;4894272;29;20052;-69
2021/09/07 00:42:17;;;;;;;15.50;11.40;;;15.80;99.90;;;;;;4892291;29;20559;-69
2021/09/07 00:44:44;;;;;;;15.90;12.50;;;15.70;99.90;;;;;;4890378;29;20059;-70
2021/09/07 00:47:13;;;;;;;16.42;11.63;;;15.70;99.90;;;;;;4893836;29;20147;-69
2021/09/07 00:49:40;;;;;;;17.73;12.40;;;15.70;99.90;;;;;;4878334;29;20182;-69
2021/09/07 00:52:08;;;;;;;16.92;12.10;;;15.60;99.90;;;;;;4893823;29;20052;-69
2021/09/07 00:54:38;;;;;;;17.40;12.40;;;15.60;99.90;;;;;;4894222;29;20049;-69
2021/09/07 00:57:08;;;;;;;18.85;13.00;;;15.50;99.90;;;;;;4889114;29;20566;-69
2021/09/07 00:59:36;;;;;;;16.92;12.13;;;15.50;99.90;;;;;;4875366;29;20053;-69
2021/09/07 01:02:05;;;;;;;17.80;12.52;;;15.40;99.90;;;;;;4890563;29;20401;-69
2021/09/07 01:04:34;;;;;;;18.17;13.20;;;15.50;99.90;;;;;;4892718;29;20087;-69
2021/09/07 01:07:06;;;;;;;17.17;11.80;;;15.50;99.90;;;;;;4894952;29;20057;-68
2021/09/07 01:09:36;;;;;;;19.25;13.27;;;15.50;99.90;;;;;;4883787;29;20072;-69
2021/09/07 01:12:07;;;;;;;19.42;12.52;;;15.60;99.90;;;;;;4888652;29;20048;-68
2021/09/07 01:14:39;;;;;;;19.65;12.85;;;15.60;99.90;;;;;;4889558;29;20042;-68
2021/09/07 01:17:12;;;;;;;16.45;11.85;;;15.50;99.90;;;;;;4880162;29;20081;-68
2021/09/07 01:19:41;;;;;;;17.25;12.90;;;15.50;99.90;;;;;;4892301;29;20096;-69
2021/09/07 01:22:09;;;;;;;17.65;12.25;;;15.50;99.90;;;;;;4902826;29;20041;-69
2021/09/07 01:24:37;;;;;;;17.10;13.45;;;15.40;99.90;;;;;;4882569;29;20036;-69
2021/09/07 01:27:05;;;;;;;16.00;12.35;;;15.40;99.90;;;;;;4906197;29;20131;-69
2021/09/07 01:29:34;;;;;;;16.35;12.13;;;15.40;99.90;;;;;;4893123;29;20047;-69
2021/09/07 01:32:09;;;;;;;18.40;13.25;;;15.30;99.90;;;;;;4905565;29;20052;-69
2021/09/07 01:34:37;;;;;;;16.77;12.20;;;15.30;99.90;;;;;;4893611;29;20100;-69
2021/09/07 01:37:04;;;;;;;16.60;12.60;;;15.20;99.90;;;;;;4890945;29;20055;-68
2021/09/07 01:39:31;;;;;;;16.70;12.45;;;15.20;99.90;;;;;;4891559;29;20052;-68
2021/09/07 01:42:00;;;;;;;17.42;12.55;;;15.20;99.90;;;;;;4893475;29;20040;-68
2021/09/07 01:44:27;;;;;;;21.05;13.55;;;15.20;99.90;;;;;;4887938;29;20067;-68
2021/09/07 01:46:55;;;;;;;18.35;13.43;;;15.20;99.90;;;;;;4866201;29;20048;-68
2021/09/07 01:49:22;;;;;;;18.25;13.13;;;15.20;99.90;;;;;;4870682;29;20587;-68
2021/09/07 01:51:49;;;;;;;16.38;12.93;;;15.20;99.90;;;;;;4889626;29;20056;-68
2021/09/07 01:54:16;;;;;;;17.13;12.20;;;15.20;99.90;;;;;;4891735;29;20047;-68
2021/09/07 01:56:45;;;;;;;20.08;12.82;;;15.10;99.90;;;;;;4886643;29;20041;-68
2021/09/07 01:59:12;;;;;;;17.95;12.93;;;15.10;99.90;;;;;;4889914;29;20049;-68
2021/09/07 02:01:40;;;;;;;20.42;13.15;;;15.10;99.90;;;;;;4884148;29;20540;-68
2021/09/07 02:04:07;;;;;;;16.15;13.40;;;15.10;99.90;;;;;;4890637;29;20053;-69
2021/09/07 02:06:35;;;;;;;15.65;12.25;;;15.00;99.90;;;;;;4875411;29;20075;-68
2021/09/07 02:09:04;;;;;;;18.67;13.10;;;15.00;99.90;;;;;;4882575;29;20048;-68
2021/09/07 02:11:33;;;;;;;17.60;12.88;;;15.00;99.90;;;;;;4891739;29;20040;-68
2021/09/07 02:14:01;;;;;;;16.83;12.02;;;15.00;99.90;;;;;;4891544;29;20055;-68
2021/09/07 02:16:28;;;;;;;16.55;12.65;;;15.00;99.90;;;;;;4876270;29;20127;-68
2021/09/07 02:18:56;;;;;;;18.50;12.88;;;15.00;99.90;;;;;;4889964;29;20514;-68
2021/09/07 02:21:24;;;;;;;17.63;12.40;;;15.00;99.90;;;;;;4881071;29;20382;-68
2021/09/07 02:23:52;;;;;;;18.33;12.73;;;15.00;99.90;;;;;;4894407;29;20044;-69
2021/09/07 02:26:20;;;;;;;18.75;12.88;;;15.00;99.90;;;;;;4892166;29;20389;-68
2021/09/07 02:28:48;;;;;;;17.98;13.40;;;15.00;99.90;;;;;;4889749;29;20133;-68
2021/09/07 02:31:16;;;;;;;17.63;13.20;;;15.00;99.90;;;;;;4895621;29;20118;-69
2021/09/07 02:33:44;;;;;;;19.65;13.40;;;15.00;99.90;;;;;;4898160;29;20147;-69
2021/09/07 02:36:11;;;;;;;15.98;12.40;;;15.00;99.90;;;;;;4893336;29;20053;-68
2021/09/07 02:38:39;;;;;;;20.90;13.05;;;15.00;99.90;;;;;;4890304;29;20060;-68
2021/09/07 02:41:06;;;;;;;15.43;12.13;;;15.00;99.90;;;;;;4864716;29;20045;-68
2021/09/07 02:43:38;;;;;;;18.20;13.20;;;15.00;99.90;;;;;;4892062;29;20427;-68
2021/09/07 02:46:05;;;;;;;18.73;12.73;;;15.00;99.90;;;;;;4887112;29;20055;-68
2021/09/07 02:48:33;;;;;;;17.15;12.93;;;15.00;99.90;;;;;;4890641;29;20108;-68
2021/09/07 02:51:00;;;;;;;17.92;12.57;;;15.00;99.90;;;;;;4860711;29;20135;-68
2021/09/07 02:53:28;;;;;;;18.58;12.60;;;15.00;99.90;;;;;;4890442;29;20056;-68
2021/09/07 02:56:00;;;;;;;17.73;13.27;;;15.00;99.90;;;;;;4891749;29;20114;-68
2021/09/07 02:58:27;;;;;;;20.02;13.25;;;15.00;99.90;;;;;;4891628;29;20045;-68
2021/09/07 03:00:56;;;;;;;19.08;13.20;;;15.00;99.90;;;;;;4894241;29;20056;-68
2021/09/07 03:03:24;;;;;;;17.88;13.65;;;15.00;99.90;;;;;;4888927;29;20040;-68
2021/09/07 03:05:52;;;;;;;17.60;12.63;;;14.90;99.90;;;;;;4896632;29;20041;-68
2021/09/07 03:08:20;;;;;;;18.15;12.45;;;15.00;99.90;;;;;;4895602;29;20164;-68
2021/09/07 03:10:49;;;;;;;16.98;12.70;;;15.00;99.90;;;;;;4880927;29;20044;-68
2021/09/07 03:13:16;;;;;;;16.73;12.63;;;15.00;99.90;;;;;;4878521;29;20055;-68
2021/09/07 03:15:46;;;;;;;16.70;11.85;;;14.90;99.90;;;;;;4879004;29;20570;-68
2021/09/07 03:18:14;;;;;;;18.25;13.13;;;14.90;99.90;;;;;;4896288;29;20052;-68
2021/09/07 03:20:42;;;;;;;17.30;12.82;;;15.00;99.90;;;;;;4885466;29;20096;-68
2021/09/07 03:23:09;;;;;;;19.33;12.57;;;15.00;99.90;;;;;;4891421;29;20484;-68
2021/09/07 03:25:37;;;;;;;17.00;12.27;;;15.00;99.90;;;;;;4891201;29;20072;-68
2021/09/07 03:28:04;;;;;;;16.52;12.70;;;15.00;99.90;;;;;;4897100;29;20284;-68
2021/09/07 03:30:32;;;;;;;18.38;13.07;;;15.00;99.90;;;;;;4894857;29;20044;-68
2021/09/07 03:33:00;;;;;;;16.63;12.27;;;15.00;99.90;;;;;;4891275;29;20128;-69
2021/09/07 03:35:31;;;;;;;17.63;12.82;;;15.10;99.90;;;;;;4886983;29;20082;-69
2021/09/07 03:38:00;;;;;;;17.02;12.60;;;15.10;99.90;;;;;;4896421;29;20104;-70
2021/09/07 03:40:29;;;;;;;18.75;12.60;;;15.10;99.90;;;;;;4895909;29;20063;-69
2021/09/07 03:42:56;;;;;;;15.43;11.85;;;15.10;99.90;;;;;;4892917;29;20526;-69
2021/09/07 03:45:25;;;;;;;15.77;12.02;;;15.10;99.90;;;;;;4888289;29;20052;-69
2021/09/07 03:47:53;;;;;;;17.80;12.40;;;15.10;99.90;;;;;;4874503;29;20037;-69
2021/09/07 03:50:21;;;;;;;19.42;13.27;;;15.10;99.90;;;;;;4878021;29;20548;-69
2021/09/07 03:52:52;;;;;;;16.08;12.50;;;15.10;99.90;;;;;;4894626;29;20530;-69
2021/09/07 03:55:21;;;;;;;20.42;12.38;;;15.10;99.90;;;;;;4893099;29;20048;-68
2021/09/07 03:57:48;;;;;;;20.17;13.02;;;15.10;99.90;;;;;;4878020;29;20051;-68
2021/09/07 04:00:16;;;;;;;15.65;11.82;;;15.20;99.90;;;;;;4894301;29;20433;-68
2021/09/07 04:02:47;;;;;;;18.58;12.50;;;15.10;99.90;;;;;;4888683;29;20371;-68
2021/09/07 04:05:14;;;;;;;23.45;16.05;;;15.10;99.90;;;;;;4895154;29;20049;-68
2021/09/07 04:07:42;;;;;;;20.83;14.82;;;15.10;99.90;;;;;;4894978;29;20041;-68
2021/09/07 04:10:09;;;;;;;19.13;13.68;;;15.10;99.90;;;;;;4888522;29;20472;-68
2021/09/07 04:12:37;;;;;;;16.70;12.93;;;15.10;99.90;;;;;;4895152;29;20045;-68
2021/09/07 04:15:06;;;;;;;24.08;16.58;;;15.10;99.90;;;;;;4892228;29;20052;-68
2021/09/07 04:17:35;;;;;;;21.90;15.38;;;15.20;99.90;;;;;;4895903;29;20051;-68
2021/09/07 04:20:03;;;;;;;20.35;14.77;;;15.20;99.90;;;;;;4874499;29;20354;-68
2021/09/07 04:22:32;;;;;;;19.83;14.40;;;15.20;99.90;;;;;;4875702;29;20044;-68
2021/09/07 04:24:59;;;;;;;22.85;16.85;;;15.20;99.90;;;;;;4893798;29;20045;-68
2021/09/07 04:27:27;;;;;;;20.83;16.50;;;15.20;99.90;;;;;;4894471;29;20460;-68
2021/09/07 04:29:54;;;;;;;21.85;15.10;;;15.20;99.90;;;;;;4893784;29;20563;-68
2021/09/07 04:32:21;;;;;;;19.88;14.13;;;15.20;99.90;;;;;;4903213;29;20033;-68
2021/09/07 04:34:48;;;;;;;15.50;12.05;;;15.20;99.90;;;;;;4877768;29;20049;-68
2021/09/07 04:37:16;;;;;;;18.05;12.55;;;15.20;99.90;;;;;;4885180;29;20055;-68
2021/09/07 04:39:49;;;;;;;18.00;12.35;;;15.20;99.90;;;;;;4884809;29;20519;-68
2021/09/07 04:42:17;;;;;;;17.35;12.65;;;15.20;99.90;;;;;;4894055;29;20381;-68
2021/09/07 04:44:46;;;;;;;15.95;12.30;;;15.20;99.90;;;;;;4894998;29;20041;-68
2021/09/07 04:47:15;;;;;;;16.17;12.07;;;15.20;99.90;;;;;;4891689;29;20055;-69
2021/09/07 04:49:43;;;;;;;18.63;13.32;;;15.20;99.90;;;;;;4891690;29;20072;-68
2021/09/07 04:52:11;;;;;;;19.85;12.70;;;15.20;99.90;;;;;;4893947;29;20075;-68
2021/09/07 04:54:39;;;;;;;19.05;13.52;;;15.20;99.90;;;;;;4884713;29;20514;-69
2021/09/07 04:57:06;;;;;;;18.15;12.90;;;15.20;99.90;;;;;;4893241;29;20123;-69
2021/09/07 04:59:33;;;;;;;18.58;14.35;;;15.20;99.90;;;;;;4885504;29;20044;-68
2021/09/07 05:02:01;;;;;;;17.58;13.40;;;15.30;99.90;;;;;;4891913;29;20052;-68
2021/09/07 05:04:28;;;;;;;18.55;13.93;;;15.30;99.90;;;;;;4892901;29;20049;-68
2021/09/07 05:06:56;;;;;;;21.10;14.27;;;15.30;99.90;;;;;;4873640;29;20140;-69
2021/09/07 05:09:23;;;;;;;19.88;13.77;;;15.40;99.90;;;;;;4885585;29;20045;-68
2021/09/07 05:11:50;;;;;;;21.70;14.20;;;15.40;99.90;;;;;;4895539;29;20131;-68
2021/09/07 05:14:18;;;;;;;17.25;12.85;;;15.40;99.90;;;;;;4894853;29;20628;-68
2021/09/07 05:16:45;;;;;;;17.92;12.55;;;15.40;99.90;;;;;;4880812;29;20049;-68
2021/09/07 05:19:15;;;;;;;17.10;12.25;;;15.50;99.90;;;;;;4894770;29;20087;-68
2021/09/07 05:21:43;;;;;;;16.85;12.38;;;15.60;99.90;;;;;;4915669;29;20045;-68
2021/09/07 05:24:10;;;;;;;16.83;12.55;;;15.60;99.90;;;;;;4891127;29;20041;-68
2021/09/07 05:26:37;;;;;;;15.65;11.40;;;15.70;99.90;;;;;;4894414;29;20117;-68
2021/09/07 05:29:05;;;;;;;16.20;11.95;;;15.80;99.90;;;;;;4881838;29;20048;-68
2021/09/07 05:31:32;;;;;;;14.82;11.35;;;15.90;99.90;;;;;;4895849;29;20076;-68
2021/09/07 05:34:00;;;;;;;16.58;11.27;;;16.00;99.90;;;;;;4894191;29;20056;-68
2021/09/07 05:36:27;;;;;;;15.10;11.23;;;16.00;99.90;;;;;;4893341;29;20070;-68
2021/09/07 05:38:54;;;;;;;16.85;11.77;;;16.00;99.90;;;;;;4891461;29;20048;-69
2021/09/07 05:41:22;;;;;;;17.48;11.23;;;16.10;99.90;;;;;;4888905;29;20049;-68
2021/09/07 05:43:49;;;;;;;15.50;11.95;;;16.20;99.90;;;;;;4892094;29;20399;-68
2021/09/07 05:46:16;;;;;;;17.05;11.50;;;16.20;99.90;;;;;;4895184;29;20428;-68
2021/09/07 05:48:45;;;;;;;22.67;12.52;;;16.20;99.90;;;;;;4892656;29;20476;-69
2021/09/07 05:51:13;;;;;;;16.42;11.57;;;16.20;99.90;;;;;;4912419;29;20064;-68
2021/09/07 05:53:41;;;;;;;14.68;11.68;;;16.30;99.90;;;;;;4907419;29;20051;-69
2021/09/07 05:56:10;;;;;;;16.60;11.88;;;16.30;99.90;;;;;;4873441;29;20061;-68
2021/09/07 05:58:38;;;;;;;16.40;11.77;;;16.40;99.90;;;;;;4878044;29;20579;-69
2021/09/07 06:01:08;;;;;;;15.52;11.57;;;16.40;99.90;;;;;;4888999;29;20168;-69
2021/09/07 06:03:36;;;;;;;16.23;11.52;;;16.50;99.90;;;;;;4888158;29;20080;-68
2021/09/07 06:06:03;;;;;;;19.05;12.02;;;16.50;99.90;;;;;;4869152;29;20056;-68
2021/09/07 06:08:31;;;;;;;17.85;11.85;;;16.60;99.90;;;;;;4893322;29;20045;-68
2021/09/07 06:10:58;;;;;;;16.30;11.15;;;16.70;99.90;;;;;;4903444;29;20092;-68
2021/09/07 06:13:26;;;;;;;18.40;12.07;;;16.80;99.90;;;;;;4872835;29;20053;-68
2021/09/07 06:15:53;;;;;;;17.90;11.95;;;16.80;99.90;;;;;;4875874;29;20041;-69
2021/09/07 06:18:20;;;;;;;18.73;11.25;;;16.90;99.90;;;;;;4892300;29;20044;-69
2021/09/07 06:20:48;;;;;;;18.63;11.50;;;17.00;99.90;;;;;;4891810;29;20525;-69
2021/09/07 06:23:15;;;;;;;15.93;11.60;;;17.10;99.90;;;;;;4872166;29;20041;-69
2021/09/07 06:25:42;;;;;;;19.08;11.00;;;17.20;99.90;;;;;;4888101;29;20401;-69
2021/09/07 06:28:10;;;;;;;21.38;11.88;;;17.30;99.90;;;;;;4892725;29;20053;-68
2021/09/07 06:30:38;;;;;;;16.08;11.38;;;17.40;99.90;;;;;;4892885;29;20124;-68
2021/09/07 06:33:05;;;;;;;15.95;11.15;;;17.50;99.90;;;;;;4896265;29;20044;-68
2021/09/07 06:35:33;;;;;;;15.60;10.85;;;17.60;99.90;;;;;;4892640;29;20044;-68
2021/09/07 06:38:00;;;;;;;19.98;12.15;;;17.70;99.90;;;;;;4891853;29;20123;-68
2021/09/07 06:40:27;;;;;;;19.67;12.13;;;17.80;99.90;;;;;;4876031;29;20052;-69
2021/09/07 06:42:55;;;;;;;20.10;11.40;;;17.80;99.90;;;;;;4881072;29;20049;-69
2021/09/07 06:45:23;;;;;;;17.10;10.80;;;17.90;99.90;;;;;;4889731;29;20036;-69
2021/09/07 06:47:50;;;;;;;19.95;12.65;;;18.00;99.90;;;;;;4887548;29;20120;-68
2021/09/07 06:50:17;;;;;;;16.10;10.95;;;18.10;99.90;;;;;;4897159;29;20050;-69
2021/09/07 06:52:45;;;;;;;15.02;11.45;;;18.30;99.90;;;;;;4888798;29;20057;-69
2021/09/07 06:55:12;;;;;;;17.08;11.95;;;18.40;99.90;;;;;;4877757;29;20144;-69
2021/09/07 06:57:39;;;;;;;17.27;10.70;;;18.40;99.90;;;;;;4872254;29;20051;-69
2021/09/07 07:00:08;;;;;;;16.85;11.48;;;18.60;99.90;;;;;;4880025;29;20060;-69
2021/09/07 07:02:40;;;;;;;17.15;11.18;;;18.60;99.90;;;;;;4886358;29;20416;-69
2021/09/07 07:05:08;;;;;;;18.23;12.10;;;18.70;99.90;;;;;;4887126;29;20053;-69
2021/09/07 07:07:36;;;;;;;20.67;13.43;;;18.80;99.90;;;;;;4893487;29;20041;-69
2021/09/07 07:10:04;;;;;;;19.70;12.43;;;18.90;99.90;;;;;;4890795;29;20040;-69
2021/09/07 07:12:32;;;;;;;19.52;13.07;;;18.90;99.90;;;;;;4891104;29;20388;-69
2021/09/07 07:14:59;;;;;;;21.90;13.43;;;18.80;99.90;;;;;;4874459;29;20071;-69
2021/09/07 07:17:27;;;;;;;24.67;13.27;;;18.80;99.90;;;;;;4892917;29;20067;-69
2021/09/07 07:19:54;;;;;;;19.90;11.88;;;18.90;99.90;;;;;;4892667;29;20377;-69
2021/09/07 07:22:25;;;;;;;18.30;12.73;;;19.00;99.90;;;;;;4887865;29;20052;-69
2021/09/07 07:24:53;;;;;;;19.42;11.98;;;19.20;99.90;;;;;;4879564;29;20451;-69
2021/09/07 07:27:20;;;;;;;24.38;12.93;;;19.20;99.90;;;;;;4888713;29;20047;-69
2021/09/07 07:29:49;;;;;;;22.15;11.70;;;19.30;99.90;;;;;;4888870;29;20088;-69
2021/09/07 07:32:18;;;;;;;20.42;11.98;;;19.40;99.90;;;;;;4890297;29;20072;-69
2021/09/07 07:34:46;;;;;;;18.90;11.13;;;19.50;99.90;;;;;;4891885;29;20056;-69
2021/09/07 07:37:14;;;;;;;17.00;10.40;;;19.70;99.90;;;;;;4891596;29;20451;-69
2021/09/07 07:39:41;;;;;;;16.42;10.65;;;19.90;99.90;;;;;;4880236;29;20096;-69
2021/09/07 07:42:10;;;;;;;16.88;10.90;;;20.20;99.90;;;;;;4884753;29;20140;-69
2021/09/07 07:44:37;;;;;;;18.00;11.35;;;20.40;99.90;;;;;;4881797;29;20045;-69
2021/09/07 07:47:04;;;;;;;14.85;10.55;;;20.50;99.90;;;;;;4890461;29;20066;-69
2021/09/07 07:49:32;;;;;;;14.13;10.73;;;20.60;99.90;;;;;;4884337;29;20136;-69
2021/09/07 07:51:59;;;;;;;16.77;10.55;;;20.80;99.90;;;;;;4894437;29;20136;-69
2021/09/07 07:54:27;;;;;;;15.73;10.73;;;21.00;99.90;;;;;;4884473;29;20478;-69
2021/09/07 07:56:55;;;;;;;16.92;11.45;;;21.00;99.90;;;;;;4891262;29;20411;-70
2021/09/07 07:59:22;;;;;;;15.07;10.57;;;21.10;99.90;;;;;;4895983;29;20421;-69
2021/09/07 08:01:49;;;;;;;17.50;10.68;;;21.10;99.90;;;;;;4883545;29;20064;-70
2021/09/07 08:04:17;;;;;;;14.27;9.50;;;21.10;99.90;;;;;;4886595;29;20049;-69
2021/09/07 08:06:45;;;;;;;16.73;10.30;;;21.30;99.90;;;;;;4895290;29;20156;-69
2021/09/07 08:09:12;;;;;;;15.30;10.82;;;21.50;99.90;;;;;;4893130;29;20117;-70
2021/09/07 08:11:39;;;;;;;13.02;9.13;;;21.50;99.90;;;;;;4888316;29;20045;-69
2021/09/07 08:14:07;;;;;;;15.82;10.98;;;21.60;99.90;;;;;;4883767;29;20139;-69
2021/09/07 08:16:34;;;;;;;16.38;10.70;;;21.50;99.90;;;;;;4894735;29;20488;-70
2021/09/07 08:19:02;;;;;;;14.25;9.73;;;21.40;99.90;;;;;;4909152;29;20069;-69
2021/09/07 08:21:30;;;;;;;16.08;10.50;;;21.30;99.90;;;;;;4880991;29;20076;-68
2021/09/07 08:23:57;;;;;;;14.95;10.13;;;21.30;99.90;;;;;;4886359;29;20045;-70
2021/09/07 08:26:25;;;;;;;12.18;8.95;;;21.30;99.90;;;;;;4894388;29;20076;-69
2021/09/07 08:28:52;;;;;;;14.90;10.65;;;21.50;99.90;;;;;;4893035;29;20099;-69
2021/09/07 08:31:20;;;;;;;16.92;9.90;;;21.70;99.90;;;;;;4899109;29;20371;-68
2021/09/07 08:33:48;;;;;;;12.50;8.45;;;21.80;99.90;;;;;;4885162;29;20045;-69
2021/09/07 08:36:15;;;;;;;17.73;11.35;;;22.00;99.90;;;;;;4892715;29;20076;-69
2021/09/07 08:38:43;;;;;;;12.32;8.77;;;22.30;99.90;;;;;;4894360;29;20059;-68
2021/09/07 08:41:15;;;;;;;11.82;9.23;;;22.30;99.90;;;;;;4878884;29;20460;-68
2021/09/07 08:43:49;;;;;;;16.38;10.20;;;22.60;99.90;;;;;;4876588;29;20047;-68
2021/09/07 08:46:17;;;;;;;17.20;10.68;;;22.60;99.90;;;;;;4884342;29;20512;-68
2021/09/07 08:48:47;;;;;;;14.85;9.05;;;22.70;99.90;;;;;;4882113;29;20049;-71
2021/09/07 08:51:17;;;;;;;12.60;9.38;;;22.90;99.90;;;;;;4894747;29;20575;-68
2021/09/07 08:53:47;;;;;;;13.00;9.35;;;23.00;99.90;;;;;;4878308;29;20622;-68
2021/09/07 08:56:14;;;;;;;14.50;9.77;;;23.20;99.90;;;;;;4896251;29;20045;-68
2021/09/07 08:58:41;;;;;;;12.05;8.68;;;23.40;99.90;;;;;;4885875;29;20045;-68
2021/09/07 09:01:13;;;;;;;13.50;8.98;;;23.60;99.90;;;;;;4888650;29;20048;-68
2021/09/07 09:03:44;;;;;;;18.70;9.15;;;23.80;99.90;;;;;;4888991;29;20089;-68
2021/09/07 09:06:11;;;;;;;12.60;8.45;;;23.80;99.90;;;;;;4877298;29;20051;-68
2021/09/07 09:08:41;;;;;;;15.85;10.43;;;24.10;99.90;;;;;;4893060;29;20055;-68
2021/09/07 09:11:11;;;;;;;14.75;9.52;;;24.10;99.90;;;;;;4889142;29;20053;-68
2021/09/07 09:13:44;;;;;;;15.48;9.90;;;24.00;99.90;;;;;;4886945;29;20041;-69
2021/09/07 09:16:14;;;;;;;11.82;8.32;;;24.00;99.90;;;;;;4888517;29;20051;-69
2021/09/07 09:18:46;;;;;;;13.82;8.63;;;24.30;99.90;;;;;;4892129;29;20040;-69
2021/09/07 09:21:32;;;;;;;14.85;10.05;;;24.60;99.90;;;;;;4889047;29;20055;-69
2021/09/07 09:24:18;;;;;;;13.18;9.25;;;24.90;99.90;;;;;;4887774;29;20108;-69
2021/09/07 09:26:53;;;;;;;14.93;9.82;;;24.90;99.90;;;;;;4885417;29;20045;-70
2021/09/07 09:29:22;;;;;;;12.75;8.95;;;25.10;99.90;;;;;;4893866;29;20066;-69
2021/09/07 09:32:13;;;;;;;14.35;9.30;;;25.20;99.90;;;;;;4893932;29;20045;-70
2021/09/07 09:34:42;;;;;;;16.55;9.60;;;25.30;99.90;;;;;;4889050;29;20041;-68
2021/09/07 09:37:15;;;;;;;13.20;9.38;;;25.30;99.90;;;;;;4885278;29;20419;-68
2021/09/07 09:39:45;;;;;;;15.18;8.75;;;25.30;99.90;;;;;;4892652;29;20076;-69
2021/09/07 09:42:29;;;;;;;13.55;9.48;;;25.30;99.90;;;;;;4894340;29;20047;-68
2021/09/07 09:45:04;;;;;;;14.35;10.13;;;25.50;99.90;;;;;;4883972;29;20056;-69
2021/09/07 09:47:38;;;;;;;15.93;8.98;;;25.70;99.90;;;;;;4888508;29;20045;-69
2021/09/07 09:50:06;;;;;;;14.48;9.00;;;25.60;99.90;;;;;;4892189;29;20131;-68
2021/09/07 09:52:36;;;;;;;17.15;9.10;;;25.20;99.90;;;;;;4893785;29;20518;-69
2021/09/07 09:55:06;;;;;;;15.20;8.85;;;25.20;99.90;;;;;;4893051;29;20411;-69
2021/09/07 09:57:35;;;;;;;12.65;9.00;;;25.20;99.90;;;;;;4883370;29;20533;-68
2021/09/07 10:00:06;;;;;;;18.38;9.73;;;25.40;99.90;;;;;;4888452;29;20139;-68
2021/09/07 10:02:44;;;;;;;15.75;10.50;;;25.70;99.90;;;;;;4893692;29;20131;-69
2021/09/07 10:05:14;;;;;;;15.13;9.65;;;25.80;99.90;;;;;;4892900;29;20052;-69
2021/09/07 10:08:02;;;;;;;14.02;9.35;;;26.00;99.90;;;;;;4889895;29;20116;-68
2021/09/07 10:10:30;;;;;;;13.32;8.70;;;26.30;99.90;;;;;;4888935;29;20064;-68
2021/09/07 10:13:00;;;;;;;12.73;8.60;;;26.30;99.90;;;;;;4891686;29;20097;-68
2021/09/07 10:18:33;;;;;;;;;;;26.60;99.90;;;;;;4880552;29;20467;-68
2021/09/07 10:26:39;;;;;;;15.60;8.90;;;27.00;99.90;;;;;;4825669;29;20050;-68
2021/09/07 10:29:09;;;;;;;11.48;7.88;;;27.00;99.90;;;;;;4833963;29;20489;-69
2021/09/07 10:31:50;;;;;;;12.18;8.40;;;26.90;99.90;;;;;;4845457;29;20050;-68
2021/09/07 10:34:20;;;;;;;10.32;7.85;;;27.40;99.90;;;;;;4834608;29;20048;-68
2021/09/07 10:37:11;;;;;;;13.02;8.32;;;27.70;99.90;;;;;;4834280;29;20156;-69
2021/09/07 10:39:44;;;;;;;10.23;7.85;;;27.90;99.90;;;;;;4835305;29;20430;-68
2021/09/07 10:42:14;;;;;;;10.55;8.13;;;28.20;99.90;;;;;;4835454;29;20050;-69
2021/09/07 10:44:58;;;;;;;13.95;10.50;;;28.20;99.90;;;;;;4818881;29;20045;-68
2021/09/07 10:47:42;;;;;;;13.70;8.48;;;28.50;99.90;;;;;;4839599;29;20248;-68
2021/09/07 10:50:58;;;;;;;11.93;7.78;;;28.80;99.90;;;;;;5053174;28;20440;-69
2021/09/07 10:53:25;;;;;;;9.50;7.22;;;28.80;99.90;;;;;;5041095;28;20137;-69
2021/09/07 10:55:52;;;;;;;14.23;7.57;;;29.40;99.20;;;;;;5044268;28;20143;-69
2021/09/07 10:58:35;;;;;;;9.98;7.07;;;29.50;97.70;;;;;;5045310;28;20049;-69
2021/09/07 11:01:28;;;;;;;11.65;6.97;;;29.50;97.00;;;;;;5040668;28;20041;-69
2021/09/07 11:04:33;;;;;;;14.02;7.03;;;29.70;95.10;;;;;;5043150;28;20061;-69
2021/09/07 11:07:40;;;;;;;10.50;7.20;;;30.40;94.20;;;;;;5041280;28;20088;-69
2021/09/07 11:10:35;;;;;;;10.32;7.00;;;30.40;93.90;;;;;;5049123;28;20076;-69
2021/09/07 11:13:22;;;;;;;11.43;7.35;;;30.80;94.00;;;;;;5057357;28;20529;-69
2021/09/07 11:15:50;;;;;;;9.35;7.00;;;31.30;94.10;;;;;;5077541;28;20033;-69
2021/09/07 11:18:25;;;;;;;11.07;7.40;;;31.70;92.50;;;;;;5043988;28;20261;-69
2021/09/07 11:20:54;;;;;;;13.10;7.60;;;31.80;92.00;;;;;;5035319;28;20503;-68
2021/09/07 11:23:30;;;;;;;11.93;6.53;;;31.70;91.50;;;;;;5043721;28;20040;-68
2021/09/07 11:26:07;;;;;;;11.68;7.60;;;31.70;92.20;;;;;;5043171;28;20034;-68
2021/09/07 11:28:38;;;;;;;10.80;7.28;;;31.70;91.90;;;;;;5044415;28;20092;-68
2021/09/07 11:31:08;;;;;;;10.73;7.93;;;31.70;92.10;;;;;;5042660;28;20049;-68
2021/09/07 11:33:37;;;;;;;9.63;7.38;;;31.60;91.50;;;;;;5044469;28;20029;-68
2021/09/07 11:36:09;;;;;;;10.82;6.95;;;31.20;91.40;;;;;;5043533;28;20347;-68
2021/09/07 11:38:45;;;;;;;9.52;6.50;;;31.10;91.60;;;;;;5043597;28;20053;-68
2021/09/07 11:41:18;;;;;;;13.57;6.75;;;31.10;91.50;;;;;;5039970;28;20041;-68
2021/09/07 11:43:57;;;;;;;9.85;6.45;;;30.90;91.50;;;;;;5042844;28;20049;-68
2021/09/07 11:46:30;;;;;;;9.40;6.40;;;31.00;91.60;;;;;;5041707;28;20152;-68
2021/09/07 11:49:09;;;;;;;9.18;7.30;;;31.40;91.50;;;;;;5044221;28;20041;-68
2021/09/07 11:51:42;;;;;;;9.32;7.10;;;31.90;90.80;;;;;;5042536;28;20040;-68
2021/09/07 11:54:16;;;;;;;9.77;6.97;;;32.10;90.60;;;;;;5043763;28;20132;-69
2021/09/07 11:56:55;;;;;;;11.38;7.40;;;32.40;90.60;;;;;;5042292;28;20037;-69
2021/09/07 11:59:22;;;;;;;10.80;7.00;;;32.30;90.20;;;;;;5053854;28;20144;-69
2021/09/07 12:01:56;;;;;;;9.48;7.65;;;31.90;89.80;;;;;;5031204;28;20442;-69
2021/09/07 12:04:23;;;;;;;8.20;6.00;;;31.80;90.30;;;;;;5030166;28;20096;-69
2021/09/07 12:06:53;;;;;;;12.10;7.55;;;32.50;89.00;;;;;;5030028;28;20431;-68
2021/09/07 12:09:31;;;;;;;11.60;6.65;;;32.40;88.90;;;;;;5031383;28;20044;-69
2021/09/07 12:12:01;;;;;;;9.35;6.90;;;32.20;89.80;;;;;;5028374;28;20045;-69
2021/09/07 12:14:37;;;;;;;10.80;6.40;;;32.70;88.20;;;;;;5000146;28;20041;-69
2021/09/07 12:17:15;;;;;;;8.18;6.43;;;32.60;86.40;;;;;;5023180;28;20511;-69
2021/09/07 12:19:52;;;;;;;8.35;6.35;;;32.80;86.70;;;;;;5022581;28;20057;-68
2021/09/07 12:22:28;;;;;;;9.77;6.50;;;32.70;85.60;;;;;;5039347;28;20589;-69
2021/09/07 12:25:13;;;;;;;9.07;6.28;;;32.60;85.10;;;;;;5029755;28;20519;-69
2021/09/07 12:27:43;;;;;;;9.45;6.28;;;33.20;84.20;;;;;;5030448;28;20061;-69
2021/09/07 12:30:13;;;;;;;9.32;6.70;;;33.40;83.10;;;;;;5026314;28;20073;-69
2021/09/07 12:33:07;;;;;;;8.35;6.10;;;33.40;82.30;;;;;;5028478;28;20116;-69
2021/09/07 12:35:39;;;;;;;8.73;5.93;;;33.70;80.50;;;;;;5025923;28;20037;-69
2021/09/07 12:38:15;;;;;;;9.88;5.60;;;33.70;79.60;;;;;;5029139;28;20116;-69
2021/09/07 12:40:46;;;;;;;8.85;5.65;;;34.30;79.00;;;;;;5028408;28;20076;-69
2021/09/07 12:43:22;;;;;;;7.28;5.57;;;34.80;77.10;;;;;;5030939;28;20056;-69
2021/09/07 12:45:52;;;;;;;8.80;5.85;;;35.10;76.90;;;;;;5030241;28;20049;-69
2021/09/07 12:48:20;;;;;;;8.30;5.05;;;35.50;74.10;;;;;;5029053;28;20053;-69
2021/09/07 12:50:49;;;;;;;8.18;5.65;;;35.90;72.30;;;;;;5028619;28;20041;-69
2021/09/07 12:53:21;;;;;;;7.18;5.47;;;36.10;71.70;;;;;;5007280;28;20421;-69